Centuck, New York
Current Conditions -  °F | °C
As of 4:56 AM on Monday 22 Dec 2014 (Local Time) from KHPN Reporting Station
Haze Haze  
Wind Chill: 29°   Ceiling: 1000
Heat Index: 33°   Visibility: 6mi
Dew Point: 31°   Wind: 5mph
Humidity: 92%   Direction: 340°NNW
Pressure: 30.3"   Gusts: NA
Location:  40.9677°N, 73.8468°W
Report Text: KHPN 220956Z 34004KT 6SM BR OVC010 01/M01 A3030 RMK AO2 SLP269 T00061006
Loading
Personal Weather Stations






























Interactive Weather Map New forecast layout! Learn more

10-Day Weather Forecast

Advertisements
Track Severe Weather on mobile